Roy Michael — WD13791 — position and weather

sailwx.info

Track history (hours):
 
Tides and Currents Weather Stations Pressure Air Temp Water Temp Dewpoint Dewpoint Depression Visibility Wind Speed Wind Dir Waves Ship Positions

Roy Michael

Last reported at 2017-Sep-18 05:24 UTC. Time now 2017-Sep-25 01:09 UTC.
Position N 29°34' W 090°23'.

Length 206 m; draft 3 m.

Type: Tug. MMSI: 367691950.

Date/timePositionNaut miles runAvg speedWind from/ knotsBaromVisibWave heightAir tempDewpointWater temp
2017-Sep-18 05:24N 29°34' W 090°23'2 3.8
2017-Sep-18 04:51N 29°33' W 090°26'2 4.9
2017-Sep-18 04:30N 29°33' W 090°28'2 4.9
2017-Sep-18 04:00N 29°34' W 090°30'2 4.8
2017-Sep-18 03:30N 29°34' W 090°33'2 4.6
2017-Sep-18 03:00N 29°35' W 090°36'2 4.4
2017-Sep-18 02:30N 29°35' W 090°38'2 4.7
2017-Sep-18 02:00N 29°36' W 090°41'2 3.5
2017-Sep-18 01:30N 29°37' W 090°43'2 3.7
2017-Sep-18 01:00N 29°35' W 090°43'2 3.6
2017-Sep-18 00:30N 29°34' W 090°45'2 3.2
2017-Sep-18 00:00N 29°32' W 090°46'2 4.8
2017-Sep-17 23:30N 29°32' W 090°48'3 4.8
2017-Sep-17 22:58N 29°32' W 090°51'2 5.2
2017-Sep-17 22:29N 29°33' W 090°54'4 5.4
2017-Sep-17 21:50N 29°35' W 090°58'54 3.9
2017-Sep-17 07:49N 29°50' W 091°58'2 5.0
2017-Sep-17 07:29N 29°50' W 091°59'2 4.4
2017-Sep-17 07:00N 29°49' W 092°02'2 4.7
2017-Sep-17 06:30N 29°48' W 092°04'2 4.9
2017-Sep-17 06:00N 29°48' W 092°07'3 5.0
2017-Sep-17 05:30N 29°47' W 092°10'2 4.6
2017-Sep-17 04:59N 29°47' W 092°12'2 4.2
2017-Sep-17 04:30N 29°48' W 092°15'3 5.1
2017-Sep-17 04:00N 29°49' W 092°17'3 4.5
2017-Sep-17 03:14N 29°51' W 092°21'34 4.4
2017-Sep-16 19:31N 29°56' W 092°60'1 4.7
2017-Sep-16 19:14N 29°56' W 093°01'1 4.6
2017-Sep-16 18:56N 29°56' W 093°03'2 4.0
2017-Sep-16 18:23N 29°56' W 093°06'1 2.1
2017-Sep-16 17:56N 29°56' W 093°07'2 4.3
2017-Sep-16 17:30N 29°56' W 093°09'2 3.7
2017-Sep-16 17:00N 29°57' W 093°11'2 4.0
2017-Sep-16 16:30N 29°59' W 093°12'2 4.4
2017-Sep-16 16:00N 30°00' W 093°14'2 3.8
2017-Sep-16 15:30N 30°02' W 093°15'2 3.3
2017-Sep-16 15:00N 30°03' W 093°16'0 0.8
2017-Sep-16 14:30N 30°04' W 093°16'0 0.0
2017-Sep-16 14:00N 30°04' W 093°16'0 0.0
2017-Sep-16 13:30N 30°04' W 093°16'0 0.0
2017-Sep-16 13:00N 30°04' W 093°16'0 0.0
2017-Sep-16 12:30N 30°04' W 093°16'0 0.0
2017-Sep-16 12:00N 30°04' W 093°16'0 0.8
2017-Sep-16 11:30N 30°04' W 093°16'2 3.2
2017-Sep-16 11:00N 30°05' W 093°18'1 2.6
2017-Sep-16 10:30N 30°06' W 093°19'1 1.1
2017-Sep-16 10:00N 30°06' W 093°19'0 0.1
2017-Sep-16 09:30N 30°06' W 093°19'0 0.2
2017-Sep-16 09:00N 30°06' W 093°19'0 0.8
2017-Sep-16 08:30N 30°06' W 093°20'2 3.7
2017-Sep-16 08:00N 30°08' W 093°20'1 1.2
2017-Sep-16 07:30N 30°08' W 093°19'0 0.1
2017-Sep-16 07:00N 30°08' W 093°19'0 0.4
2017-Sep-16 06:30N 30°08' W 093°19'0 0.0
2017-Sep-16 06:00N 30°08' W 093°19'0 0.0
2017-Sep-16 05:30N 30°08' W 093°19'0 0.0
2017-Sep-16 04:59N 30°08' W 093°19'0 0.0
2017-Sep-16 04:29N 30°08' W 093°19'0 0.0
2017-Sep-16 03:53N 30°08' W 093°19'0 0.0
2017-Sep-16 03:29N 30°08' W 093°19'0 0.0
2017-Sep-16 02:59N 30°08' W 093°19'0 0.0
2017-Sep-16 02:29N 30°08' W 093°19'0 0.0
2017-Sep-16 01:59N 30°08' W 093°19'0 0.0
2017-Sep-16 01:26N 30°08' W 093°19'0 0.0
2017-Sep-16 00:59N 30°08' W 093°19'0 0.0
2017-Sep-16 00:29N 30°08' W 093°19'0 0.0
2017-Sep-15 23:59N 30°08' W 093°19'0 0.0
2017-Sep-15 23:29N 30°08' W 093°19'0 0.0
2017-Sep-15 22:59N 30°08' W 093°19'0 0.0
2017-Sep-15 22:29N 30°08' W 093°19'0 0.0
2017-Sep-15 21:59N 30°08' W 093°19'0 0.0
2017-Sep-15 21:29N 30°08' W 093°19'0 0.0
2017-Sep-15 20:59N 30°08' W 093°19'0 0.0
2017-Sep-15 20:29N 30°08' W 093°19'0 0.0
2017-Sep-15 19:59N 30°08' W 093°19'0 0.0
2017-Sep-15 19:29N 30°08' W 093°19'0 0.0
2017-Sep-15 18:59N 30°08' W 093°19'0 0.0
2017-Sep-15 18:29N 30°08' W 093°19'0 0.0
2017-Sep-15 17:59N 30°08' W 093°19'0 0.0
2017-Sep-15 17:29N 30°08' W 093°19'0 0.0
2017-Sep-15 16:59N 30°08' W 093°19'0 0.0
2017-Sep-15 16:29N 30°08' W 093°19'0 0.0
2017-Sep-15 15:59N 30°08' W 093°19'0 0.0
2017-Sep-15 15:29N 30°08' W 093°19'0 0.0
2017-Sep-15 14:59N 30°08' W 093°19'0 0.0
2017-Sep-15 14:29N 30°08' W 093°19'0 0.0
2017-Sep-15 13:59N 30°08' W 093°19'0 0.0
2017-Sep-15 13:29N 30°08' W 093°19'0 0.0
2017-Sep-15 12:59N 30°08' W 093°19'0 0.0
2017-Sep-15 12:30N 30°08' W 093°19'0 0.0
2017-Sep-15 12:00N 30°08' W 093°19'0 0.0
2017-Sep-15 11:30N 30°08' W 093°19'0 0.0
2017-Sep-15 11:00N 30°08' W 093°19'0 0.0
2017-Sep-15 10:30N 30°08' W 093°19'0 0.0
2017-Sep-15 10:00N 30°08' W 093°19'0 0.6
2017-Sep-15 09:30N 30°08' W 093°20'0 0.0
2017-Sep-15 09:00N 30°08' W 093°20'0 0.0
2017-Sep-15 08:30N 30°08' W 093°20'0 0.0
2017-Sep-15 08:00N 30°08' W 093°20'0 0.0
2017-Sep-15 07:30N 30°08' W 093°20'0 0.0
2017-Sep-15 07:00N 30°08' W 093°20'0 0.0
2017-Sep-15 06:30N 30°08' W 093°20'1 1.4
2017-Sep-15 06:00N 30°07' W 093°20'2 4.7
2017-Sep-15 05:30N 30°05' W 093°20'2 4.8
2017-Sep-15 05:00N 30°04' W 093°22'0 0.1
2017-Sep-15 04:29N 30°04' W 093°22'0 0.0
2017-Sep-15 03:59N 30°04' W 093°22'0 0.0
2017-Sep-15 03:29N 30°04' W 093°22'0 0.0
2017-Sep-15 02:59N 30°04' W 093°22'0 0.0
2017-Sep-15 02:29N 30°04' W 093°22'0 0.0
2017-Sep-15 01:59N 30°04' W 093°22'0 0.0
2017-Sep-15 01:29N 30°04' W 093°22'0 0.0
2017-Sep-15 00:59N 30°04' W 093°22'0 0.0
2017-Sep-15 00:29N 30°04' W 093°22'0 0.0
2017-Sep-14 23:59N 30°04' W 093°22'0 0.0
2017-Sep-14 23:29N 30°04' W 093°22'0 0.0
2017-Sep-14 22:59N 30°04' W 093°22'0 0.0
2017-Sep-14 22:29N 30°04' W 093°22'1 1.4
2017-Sep-14 22:00N 30°04' W 093°21'0 0.0
2017-Sep-14 21:30N 30°04' W 093°21'1 1.4
2017-Sep-14 21:00N 30°04' W 093°22'0 0.0
2017-Sep-14 20:30N 30°04' W 093°22'0 0.2
2017-Sep-14 20:00N 30°04' W 093°22'2 4.3
2017-Sep-14 19:30N 30°04' W 093°24'3 5.4
2017-Sep-14 19:00N 30°04' W 093°28'3 5.6
2017-Sep-14 18:30N 30°04' W 093°31'3 6.3
2017-Sep-14 18:00N 30°04' W 093°34'3 6.2
2017-Sep-14 17:30N 30°04' W 093°38'3 6.0
2017-Sep-14 17:00N 30°04' W 093°42'70 4.8
2017-Sep-14 02:21N 29°27' W 094°50'3 5.6
2017-Sep-14 01:52N 29°29' W 094°52'2 5.9
2017-Sep-14 01:30N 29°31' W 094°53'3 6.1
2017-Sep-14 01:00N 29°33' W 094°55'3 6.1
2017-Sep-14 00:30N 29°36' W 094°57'3 5.8
2017-Sep-14 00:00N 29°39' W 094°58'3 6.2
2017-Sep-13 23:30N 29°41' W 094°59'3 5.4
2017-Sep-13 23:00N 29°44' W 095°01'3 5.7
2017-Sep-13 22:25N 29°46' W 095°04'0 0.4
2017-Sep-13 21:15N 29°46' W 095°05'1 1.8
2017-Sep-13 20:32N 29°47' W 095°04'0 3.9
2017-Sep-13 20:29N 29°47' W 095°04'0 0.7
2017-Sep-13 20:00N 29°47' W 095°05'0 0.0
2017-Sep-13 19:03N 29°47' W 095°05'1 4.6
2017-Sep-13 18:52N 29°46' W 095°05'2 5.7
2017-Sep-13 18:30N 29°44' W 095°03'2 2.4
2017-Sep-13 17:45N 29°44' W 095°01'2 6.0
2017-Sep-13 17:27N 29°44' W 095°03'3 1.7
2017-Sep-13 15:58N 29°46' W 095°05'2 4.2
2017-Sep-13 15:28N 29°45' W 095°06'0 0.1
2017-Sep-13 14:10N 29°45' W 095°06'0 0.1
2017-Sep-13 13:42N 29°45' W 095°06'0 0.1
2017-Sep-13 12:45N 29°45' W 095°06'1 5.3
2017-Sep-13 12:30N 29°46' W 095°05'1 0.6
2017-Sep-13 10:59N 29°46' W 095°04'0 0.0
2017-Sep-13 10:27N 29°46' W 095°04'0 0.1
2017-Sep-13 10:00N 29°46' W 095°04'3 3.4
2017-Sep-13 09:14N 29°44' W 095°07'1 5.1
2017-Sep-13 09:00N 29°44' W 095°08'5 3.7
2017-Sep-13 07:37N 29°44' W 095°14'0 0.1
2017-Sep-13 07:30N 29°44' W 095°14'0 0.0
2017-Sep-13 06:43N 29°44' W 095°14'0 0.0
2017-Sep-13 06:28N 29°44' W 095°14'0 0.0
2017-Sep-13 05:40N 29°44' W 095°14'0 0.0
2017-Sep-13 05:28N 29°44' W 095°14'0 0.0
2017-Sep-13 04:58N 29°44' W 095°14'0 0.0
2017-Sep-13 04:22N 29°44' W 095°14'0 0.0
2017-Sep-13 03:55N 29°44' W 095°14'0 0.0
2017-Sep-13 03:28N 29°44' W 095°14'0 0.0
2017-Sep-13 02:40N 29°44' W 095°14'0 0.0
2017-Sep-13 02:19N 29°44' W 095°14'0 0.0
2017-Sep-13 01:58N 29°44' W 095°14'0 0.0
2017-Sep-12 23:49N 29°44' W 095°14'0 0.0
2017-Sep-12 23:25N 29°44' W 095°14'0 0.0
2017-Sep-12 22:58N 29°44' W 095°14'0 0.0
2017-Sep-12 21:49N 29°44' W 095°14'0 0.0
2017-Sep-12 21:25N 29°44' W 095°14'0 0.0
2017-Sep-12 20:13N 29°44' W 095°14'0 0.0
2017-Sep-12 19:55N 29°44' W 095°14'0 0.0
2017-Sep-12 18:07N 29°44' W 095°14'0 0.0
2017-Sep-12 16:10N 29°44' W 095°14'0 0.0
2017-Sep-12 15:38N 29°44' W 095°14'0 0.0
2017-Sep-12 15:26N 29°44' W 095°14'0 0.0
2017-Sep-12 14:59N 29°44' W 095°14'0 0.0
2017-Sep-12 14:02N 29°44' W 095°14'0 0.0
2017-Sep-12 13:44N 29°44' W 095°14'0 0.0
2017-Sep-12 12:35N 29°44' W 095°14'0 0.0
2017-Sep-12 10:53N 29°44' W 095°14'0 0.0
2017-Sep-12 10:23N 29°44' W 095°14'0 0.0
2017-Sep-12 09:56N 29°44' W 095°14'0 0.0
2017-Sep-12 09:26N 29°44' W 095°14'0 0.0
2017-Sep-12 08:59N 29°44' W 095°14'0 0.0
2017-Sep-12 07:35N 29°44' W 095°14'0 0.0
2017-Sep-12 07:25N 29°44' W 095°14'2 2.7
2017-Sep-12 06:29N 29°45' W 095°11'3 4.6
2017-Sep-12 05:56N 29°44' W 095°08'3 4.9
2017-Sep-12 05:22N 29°45' W 095°06'1 3.8
2017-Sep-12 05:00N 29°47' W 095°05'0 0.8
2017-Sep-12 04:30N 29°47' W 095°04'1 1.1
2017-Sep-12 03:58N 29°47' W 095°04'1 0.2
2017-Sep-12 01:38N 29°47' W 095°04'1 4.6
2017-Sep-12 01:30N 29°46' W 095°05'3 5.1
2017-Sep-12 00:50N 29°44' W 095°08'0 0.0
2017-Sep-12 00:24N 29°44' W 095°08'0 0.0
2017-Sep-12 00:00N 29°44' W 095°08'2 1.7
2017-Sep-11 22:57N 29°46' W 095°07'0 0.1
2017-Sep-11 22:09N 29°46' W 095°06'0 0.0
2017-Sep-11 21:52N 29°46' W 095°06'0 0.1
2017-Sep-11 21:10N 29°46' W 095°07'1 1.1
2017-Sep-11 20:20N 29°45' W 095°06'1 1.7
2017-Sep-11 20:00N 29°46' W 095°05'1 0.7
2017-Sep-11 19:09N 29°46' W 095°06'1 3.4
2017-Sep-11 18:58N 29°46' W 095°05'1 2.9
2017-Sep-11 18:29N 29°47' W 095°04'0 0.0
2017-Sep-11 17:50N 29°47' W 095°04'0 0.0
2017-Sep-11 17:29N 29°47' W 095°04'0 0.0
2017-Sep-11 16:50N 29°47' W 095°04'0 0.0
2017-Sep-11 16:29N 29°47' W 095°04'0 0.0
2017-Sep-11 15:59N 29°47' W 095°04'0 0.0
2017-Sep-11 15:29N 29°47' W 095°04'0 0.0
2017-Sep-11 14:53N 29°47' W 095°04'0 0.0
2017-Sep-11 14:26N 29°47' W 095°04'0 0.0
2017-Sep-11 13:53N 29°47' W 095°04'0 0.0
2017-Sep-11 13:23N 29°47' W 095°04'1 1.1
2017-Sep-11 12:54N 29°47' W 095°05'1 1.1
2017-Sep-11 11:37N 29°45' W 095°06'0 0.3
2017-Sep-11 11:23N 29°45' W 095°06'0 0.0
2017-Sep-11 10:38N 29°45' W 095°06'0 0.0
2017-Sep-11 10:23N 29°45' W 095°06'0 0.8
2017-Sep-11 09:59N 29°46' W 095°05'2 3.8
2017-Sep-11 09:30N 29°47' W 095°04'0 0.1
2017-Sep-11 08:09N 29°47' W 095°04'1 5.1
2017-Sep-11 08:00N 29°46' W 095°05'1 0.1
2017-Sep-10 18:09N 29°46' W 095°05'1 0.5
2017-Sep-10 15:33N 29°45' W 095°06'1 4.7
2017-Sep-10 15:24N 29°45' W 095°06'2 4.8
2017-Sep-10 15:00N 29°47' W 095°04'0 0.0
2017-Sep-10 13:46N 29°47' W 095°04'0 0.0
2017-Sep-10 13:29N 29°47' W 095°04'0 0.0
2017-Sep-10 12:58N 29°47' W 095°04'0 0.2
2017-Sep-10 12:29N 29°47' W 095°04'0 0.5
2017-Sep-10 12:00N 29°47' W 095°05'0 0.0
2017-Sep-10 11:29N 29°47' W 095°05'0 0.0
2017-Sep-10 10:50N 29°47' W 095°05'0 0.0
2017-Sep-10 10:30N 29°47' W 095°05'0 0.0
2017-Sep-10 10:00N 29°47' W 095°05'1 1.8
2017-Sep-10 09:29N 29°46' W 095°05'2 3.7
2017-Sep-10 08:58N 29°45' W 095°06'2 4.3
2017-Sep-10 08:24N 29°44' W 095°09'5 1.9
2017-Sep-10 06:00N 29°43' W 095°14'0 0.0
2017-Sep-10 04:07N 29°43' W 095°14'0 0.0
2017-Sep-10 03:06N 29°43' W 095°14'3 3.8
2017-Sep-10 02:18N 29°45' W 095°11'1 5.0
2017-Sep-10 02:00N 29°45' W 095°10'3 5.0
2017-Sep-10 01:30N 29°44' W 095°07'2 0.3
2017-Sep-09 19:30N 29°46' W 095°06'0 0.2
2017-Sep-09 17:38N 29°45' W 095°06'0 0.5
2017-Sep-09 16:43N 29°46' W 095°05'1 0.3
2017-Sep-09 15:07N 29°45' W 095°06'0 3.2
2017-Sep-09 15:00N 29°46' W 095°05'2 3.5
2017-Sep-09 14:30N 29°47' W 095°04'0 0.4
2017-Sep-09 14:00N 29°47' W 095°04'2 0.6
2017-Sep-09 10:56N 29°46' W 095°05'3 5.7
2017-Sep-09 10:25N 29°44' W 095°08'2 3.7
2017-Sep-09 09:55N 29°45' W 095°10'3 5.8
2017-Sep-09 09:20N 29°44' W 095°14'1 1.4
2017-Sep-09 08:52N 29°43' W 095°14'0 0.8
2017-Sep-09 08:27N 29°43' W 095°14'2 4.8
2017-Sep-09 07:58N 29°45' W 095°12'3 5.0
2017-Sep-09 07:27N 29°44' W 095°09'2 4.5
2017-Sep-09 07:00N 29°45' W 095°06'3 4.9
2017-Sep-09 06:29N 29°47' W 095°05'1 0.6
2017-Sep-09 05:03N 29°47' W 095°04'0 2.4
2017-Sep-09 04:59N 29°47' W 095°04'2 3.1
2017-Sep-09 04:24N 29°46' W 095°06'0 0.8
2017-Sep-09 04:00N 29°46' W 095°06'0 0.0
2017-Sep-09 03:29N 29°46' W 095°06'0 0.0
2017-Sep-09 02:56N 29°46' W 095°06'0 0.0
2017-Sep-09 02:29N 29°46' W 095°06'0 0.0
2017-Sep-09 01:59N 29°46' W 095°06'0 0.3
2017-Sep-09 01:30N 29°46' W 095°06'0 0.3
2017-Sep-08 23:51N 29°45' W 095°06'2 5.5
2017-Sep-08 23:30N 29°47' W 095°04'0 0.4
2017-Sep-08 22:42N 29°47' W 095°05'1 2.9
2017-Sep-08 22:25N 29°46' W 095°05'2 5.2
2017-Sep-08 21:59N 29°44' W 095°07'6 4.8
2017-Sep-08 20:43N 29°44' W 095°14'0 1.1
2017-Sep-08 20:30N 29°44' W 095°14'0 0.0
2017-Sep-08 19:55N 29°44' W 095°14'3 3.6
2017-Sep-08 19:12N 29°45' W 095°11'1 6.2
2017-Sep-08 19:00N 29°45' W 095°10'3 5.3
2017-Sep-08 18:30N 29°44' W 095°07'0 0.6
2017-Sep-08 18:00N 29°45' W 095°06'1 2.0
2017-Sep-08 17:29N 29°45' W 095°06'2 3.3
2017-Sep-08 16:46N 29°47' W 095°04'2 5.4
2017-Sep-08 16:29N 29°46' W 095°05'0 0.1
2017-Sep-08 13:35N 29°46' W 095°05'1 5.1
2017-Sep-08 13:28N 29°46' W 095°05'1 2.2
2017-Sep-08 12:59N 29°47' W 095°04'0 0.0
2017-Sep-08 12:11N 29°47' W 095°04'0 0.0
2017-Sep-08 11:59N 29°47' W 095°04'0 0.0
2017-Sep-08 11:20N 29°47' W 095°04'0 0.0
2017-Sep-08 10:56N 29°47' W 095°04'0 0.0
2017-Sep-08 10:29N 29°47' W 095°04'0 0.0
2017-Sep-08 09:56N 29°47' W 095°04'0 0.0
2017-Sep-08 09:29N 29°47' W 095°04'0 0.0
2017-Sep-08 08:59N 29°47' W 095°04'0 0.0
2017-Sep-08 08:29N 29°47' W 095°04'0 0.0
2017-Sep-08 07:59N 29°47' W 095°04'0 0.0
2017-Sep-08 07:29N 29°47' W 095°04'0 0.0
2017-Sep-08 06:59N 29°47' W 095°04'0 0.0
2017-Sep-08 06:29N 29°47' W 095°04'0 0.0
2017-Sep-08 05:59N 29°47' W 095°04'0 0.0
2017-Sep-08 05:29N 29°47' W 095°04'  
Track history (hours):
 
Tides and Currents Weather Stations Pressure Air Temp Water Temp Dewpoint Dewpoint Depression Visibility Wind Speed Wind Dir Waves Ship Positions

Roy Michael

Last reported at 2017-Sep-18 05:24 UTC. Time now 2017-Sep-25 01:09 UTC.
Position N 29°34' W 090°23'.

Length 206 m; draft 3 m.

Type: Tug. MMSI: 367691950.

Date/timePositionNaut miles runAvg speedWind from/ knotsBaromVisibWave heightAir tempDewpointWater temp
2017-Sep-18 05:24N 29°34' W 090°23'2 3.8
2017-Sep-18 04:51N 29°33' W 090°26'2 4.9
2017-Sep-18 04:30N 29°33' W 090°28'2 4.9
2017-Sep-18 04:00N 29°34' W 090°30'2 4.8
2017-Sep-18 03:30N 29°34' W 090°33'2 4.6
2017-Sep-18 03:00N 29°35' W 090°36'2 4.4
2017-Sep-18 02:30N 29°35' W 090°38'2 4.7
2017-Sep-18 02:00N 29°36' W 090°41'2 3.5
2017-Sep-18 01:30N 29°37' W 090°43'2 3.7
2017-Sep-18 01:00N 29°35' W 090°43'2 3.6
2017-Sep-18 00:30N 29°34' W 090°45'2 3.2
2017-Sep-18 00:00N 29°32' W 090°46'2 4.8
2017-Sep-17 23:30N 29°32' W 090°48'3 4.8
2017-Sep-17 22:58N 29°32' W 090°51'2 5.2
2017-Sep-17 22:29N 29°33' W 090°54'4 5.4
2017-Sep-17 21:50N 29°35' W 090°58'54 3.9
2017-Sep-17 07:49N 29°50' W 091°58'2 5.0
2017-Sep-17 07:29N 29°50' W 091°59'2 4.4
2017-Sep-17 07:00N 29°49' W 092°02'2 4.7
2017-Sep-17 06:30N 29°48' W 092°04'2 4.9
2017-Sep-17 06:00N 29°48' W 092°07'3 5.0
2017-Sep-17 05:30N 29°47' W 092°10'2 4.6
2017-Sep-17 04:59N 29°47' W 092°12'2 4.2
2017-Sep-17 04:30N 29°48' W 092°15'3 5.1
2017-Sep-17 04:00N 29°49' W 092°17'3 4.5
2017-Sep-17 03:14N 29°51' W 092°21'34 4.4
2017-Sep-16 19:31N 29°56' W 092°60'1 4.7
2017-Sep-16 19:14N 29°56' W 093°01'1 4.6
2017-Sep-16 18:56N 29°56' W 093°03'2 4.0
2017-Sep-16 18:23N 29°56' W 093°06'1 2.1
2017-Sep-16 17:56N 29°56' W 093°07'2 4.3
2017-Sep-16 17:30N 29°56' W 093°09'2 3.7
2017-Sep-16 17:00N 29°57' W 093°11'2 4.0
2017-Sep-16 16:30N 29°59' W 093°12'2 4.4
2017-Sep-16 16:00N 30°00' W 093°14'2 3.8
2017-Sep-16 15:30N 30°02' W 093°15'2 3.3
2017-Sep-16 15:00N 30°03' W 093°16'0 0.8
2017-Sep-16 14:30N 30°04' W 093°16'0 0.0
2017-Sep-16 14:00N 30°04' W 093°16'0 0.0
2017-Sep-16 13:30N 30°04' W 093°16'0 0.0
2017-Sep-16 13:00N 30°04' W 093°16'0 0.0
2017-Sep-16 12:30N 30°04' W 093°16'0 0.0
2017-Sep-16 12:00N 30°04' W 093°16'0 0.8
2017-Sep-16 11:30N 30°04' W 093°16'2 3.2
2017-Sep-16 11:00N 30°05' W 093°18'1 2.6
2017-Sep-16 10:30N 30°06' W 093°19'1 1.1
2017-Sep-16 10:00N 30°06' W 093°19'0 0.1
2017-Sep-16 09:30N 30°06' W 093°19'0 0.2
2017-Sep-16 09:00N 30°06' W 093°19'0 0.8
2017-Sep-16 08:30N 30°06' W 093°20'2 3.7
2017-Sep-16 08:00N 30°08' W 093°20'1 1.2
2017-Sep-16 07:30N 30°08' W 093°19'0 0.1
2017-Sep-16 07:00N 30°08' W 093°19'0 0.4
2017-Sep-16 06:30N 30°08' W 093°19'0 0.0
2017-Sep-16 06:00N 30°08' W 093°19'0 0.0
2017-Sep-16 05:30N 30°08' W 093°19'0 0.0
2017-Sep-16 04:59N 30°08' W 093°19'0 0.0
2017-Sep-16 04:29N 30°08' W 093°19'0 0.0
2017-Sep-16 03:53N 30°08' W 093°19'0 0.0
2017-Sep-16 03:29N 30°08' W 093°19'0 0.0
2017-Sep-16 02:59N 30°08' W 093°19'0 0.0
2017-Sep-16 02:29N 30°08' W 093°19'0 0.0
2017-Sep-16 01:59N 30°08' W 093°19'0 0.0
2017-Sep-16 01:26N 30°08' W 093°19'0 0.0
2017-Sep-16 00:59N 30°08' W 093°19'0 0.0
2017-Sep-16 00:29N 30°08' W 093°19'0 0.0
2017-Sep-15 23:59N 30°08' W 093°19'0 0.0
2017-Sep-15 23:29N 30°08' W 093°19'0 0.0
2017-Sep-15 22:59N 30°08' W 093°19'0 0.0
2017-Sep-15 22:29N 30°08' W 093°19'0 0.0
2017-Sep-15 21:59N 30°08' W 093°19'0 0.0
2017-Sep-15 21:29N 30°08' W 093°19'0 0.0
2017-Sep-15 20:59N 30°08' W 093°19'0 0.0
2017-Sep-15 20:29N 30°08' W 093°19'0 0.0
2017-Sep-15 19:59N 30°08' W 093°19'0 0.0
2017-Sep-15 19:29N 30°08' W 093°19'0 0.0
2017-Sep-15 18:59N 30°08' W 093°19'0 0.0
2017-Sep-15 18:29N 30°08' W 093°19'0 0.0
2017-Sep-15 17:59N 30°08' W 093°19'0 0.0
2017-Sep-15 17:29N 30°08' W 093°19'0 0.0
2017-Sep-15 16:59N 30°08' W 093°19'0 0.0
2017-Sep-15 16:29N 30°08' W 093°19'0 0.0
2017-Sep-15 15:59N 30°08' W 093°19'0 0.0
2017-Sep-15 15:29N 30°08' W 093°19'0 0.0
2017-Sep-15 14:59N 30°08' W 093°19'0 0.0
2017-Sep-15 14:29N 30°08' W 093°19'0 0.0
2017-Sep-15 13:59N 30°08' W 093°19'0 0.0
2017-Sep-15 13:29N 30°08' W 093°19'0 0.0
2017-Sep-15 12:59N 30°08' W 093°19'0 0.0
2017-Sep-15 12:30N 30°08' W 093°19'0 0.0
2017-Sep-15 12:00N 30°08' W 093°19'0 0.0
2017-Sep-15 11:30N 30°08' W 093°19'0 0.0
2017-Sep-15 11:00N 30°08' W 093°19'0 0.0
2017-Sep-15 10:30N 30°08' W 093°19'0 0.0
2017-Sep-15 10:00N 30°08' W 093°19'0 0.6
2017-Sep-15 09:30N 30°08' W 093°20'0 0.0
2017-Sep-15 09:00N 30°08' W 093°20'0 0.0
2017-Sep-15 08:30N 30°08' W 093°20'0 0.0
2017-Sep-15 08:00N 30°08' W 093°20'0 0.0
2017-Sep-15 07:30N 30°08' W 093°20'0 0.0
2017-Sep-15 07:00N 30°08' W 093°20'0 0.0
2017-Sep-15 06:30N 30°08' W 093°20'1 1.4
2017-Sep-15 06:00N 30°07' W 093°20'2 4.7
2017-Sep-15 05:30N 30°05' W 093°20'2 4.8
2017-Sep-15 05:00N 30°04' W 093°22'0 0.1
2017-Sep-15 04:29N 30°04' W 093°22'0 0.0
2017-Sep-15 03:59N 30°04' W 093°22'0 0.0
2017-Sep-15 03:29N 30°04' W 093°22'0 0.0
2017-Sep-15 02:59N 30°04' W 093°22'0 0.0
2017-Sep-15 02:29N 30°04' W 093°22'0 0.0
2017-Sep-15 01:59N 30°04' W 093°22'0 0.0
2017-Sep-15 01:29N 30°04' W 093°22'0 0.0
2017-Sep-15 00:59N 30°04' W 093°22'0 0.0
2017-Sep-15 00:29N 30°04' W 093°22'0 0.0
2017-Sep-14 23:59N 30°04' W 093°22'0 0.0
2017-Sep-14 23:29N 30°04' W 093°22'0 0.0
2017-Sep-14 22:59N 30°04' W 093°22'0 0.0
2017-Sep-14 22:29N 30°04' W 093°22'1 1.4
2017-Sep-14 22:00N 30°04' W 093°21'0 0.0
2017-Sep-14 21:30N 30°04' W 093°21'1 1.4
2017-Sep-14 21:00N 30°04' W 093°22'0 0.0
2017-Sep-14 20:30N 30°04' W 093°22'0 0.2
2017-Sep-14 20:00N 30°04' W 093°22'2 4.3
2017-Sep-14 19:30N 30°04' W 093°24'3 5.4
2017-Sep-14 19:00N 30°04' W 093°28'3 5.6
2017-Sep-14 18:30N 30°04' W 093°31'3 6.3
2017-Sep-14 18:00N 30°04' W 093°34'3 6.2
2017-Sep-14 17:30N 30°04' W 093°38'3 6.0
2017-Sep-14 17:00N 30°04' W 093°42'70 4.8
2017-Sep-14 02:21N 29°27' W 094°50'3 5.6
2017-Sep-14 01:52N 29°29' W 094°52'2 5.9
2017-Sep-14 01:30N 29°31' W 094°53'3 6.1
2017-Sep-14 01:00N 29°33' W 094°55'3 6.1
2017-Sep-14 00:30N 29°36' W 094°57'3 5.8
2017-Sep-14 00:00N 29°39' W 094°58'3 6.2
2017-Sep-13 23:30N 29°41' W 094°59'3 5.4
2017-Sep-13 23:00N 29°44' W 095°01'3 5.7
2017-Sep-13 22:25N 29°46' W 095°04'0 0.4
2017-Sep-13 21:15N 29°46' W 095°05'1 1.8
2017-Sep-13 20:32N 29°47' W 095°04'0 3.9
2017-Sep-13 20:29N 29°47' W 095°04'0 0.7
2017-Sep-13 20:00N 29°47' W 095°05'0 0.0
2017-Sep-13 19:03N 29°47' W 095°05'1 4.6
2017-Sep-13 18:52N 29°46' W 095°05'2 5.7
2017-Sep-13 18:30N 29°44' W 095°03'2 2.4
2017-Sep-13 17:45N 29°44' W 095°01'2 6.0
2017-Sep-13 17:27N 29°44' W 095°03'3 1.7
2017-Sep-13 15:58N 29°46' W 095°05'2 4.2
2017-Sep-13 15:28N 29°45' W 095°06'0 0.1
2017-Sep-13 14:10N 29°45' W 095°06'0 0.1
2017-Sep-13 13:42N 29°45' W 095°06'0 0.1
2017-Sep-13 12:45N 29°45' W 095°06'1 5.3
2017-Sep-13 12:30N 29°46' W 095°05'1 0.6
2017-Sep-13 10:59N 29°46' W 095°04'0 0.0
2017-Sep-13 10:27N 29°46' W 095°04'0 0.1
2017-Sep-13 10:00N 29°46' W 095°04'3 3.4
2017-Sep-13 09:14N 29°44' W 095°07'1 5.1
2017-Sep-13 09:00N 29°44' W 095°08'5 3.7
2017-Sep-13 07:37N 29°44' W 095°14'0 0.1
2017-Sep-13 07:30N 29°44' W 095°14'0 0.0
2017-Sep-13 06:43N 29°44' W 095°14'0 0.0
2017-Sep-13 06:28N 29°44' W 095°14'0 0.0
2017-Sep-13 05:40N 29°44' W 095°14'0 0.0
2017-Sep-13 05:28N 29°44' W 095°14'0 0.0
2017-Sep-13 04:58N 29°44' W 095°14'0 0.0
2017-Sep-13 04:22N 29°44' W 095°14'0 0.0
2017-Sep-13 03:55N 29°44' W 095°14'0 0.0
2017-Sep-13 03:28N 29°44' W 095°14'0 0.0
2017-Sep-13 02:40N 29°44' W 095°14'0 0.0
2017-Sep-13 02:19N 29°44' W 095°14'0 0.0
2017-Sep-13 01:58N 29°44' W 095°14'0 0.0
2017-Sep-12 23:49N 29°44' W 095°14'0 0.0
2017-Sep-12 23:25N 29°44' W 095°14'0 0.0
2017-Sep-12 22:58N 29°44' W 095°14'0 0.0
2017-Sep-12 21:49N 29°44' W 095°14'0 0.0
2017-Sep-12 21:25N 29°44' W 095°14'0 0.0
2017-Sep-12 20:13N 29°44' W 095°14'0 0.0
2017-Sep-12 19:55N 29°44' W 095°14'0 0.0
2017-Sep-12 18:07N 29°44' W 095°14'0 0.0
2017-Sep-12 16:10N 29°44' W 095°14'0 0.0
2017-Sep-12 15:38N 29°44' W 095°14'0 0.0
2017-Sep-12 15:26N 29°44' W 095°14'0 0.0
2017-Sep-12 14:59N 29°44' W 095°14'0 0.0
2017-Sep-12 14:02N 29°44' W 095°14'0 0.0
2017-Sep-12 13:44N 29°44' W 095°14'0 0.0
2017-Sep-12 12:35N 29°44' W 095°14'0 0.0
2017-Sep-12 10:53N 29°44' W 095°14'0 0.0
2017-Sep-12 10:23N 29°44' W 095°14'0 0.0
2017-Sep-12 09:56N 29°44' W 095°14'0 0.0
2017-Sep-12 09:26N 29°44' W 095°14'0 0.0
2017-Sep-12 08:59N 29°44' W 095°14'0 0.0
2017-Sep-12 07:35N 29°44' W 095°14'0 0.0
2017-Sep-12 07:25N 29°44' W 095°14'2 2.7
2017-Sep-12 06:29N 29°45' W 095°11'3 4.6
2017-Sep-12 05:56N 29°44' W 095°08'3 4.9
2017-Sep-12 05:22N 29°45' W 095°06'1 3.8
2017-Sep-12 05:00N 29°47' W 095°05'0 0.8
2017-Sep-12 04:30N 29°47' W 095°04'1 1.1
2017-Sep-12 03:58N 29°47' W 095°04'1 0.2
2017-Sep-12 01:38N 29°47' W 095°04'1 4.6
2017-Sep-12 01:30N 29°46' W 095°05'3 5.1
2017-Sep-12 00:50N 29°44' W 095°08'0 0.0
2017-Sep-12 00:24N 29°44' W 095°08'0 0.0
2017-Sep-12 00:00N 29°44' W 095°08'2 1.7
2017-Sep-11 22:57N 29°46' W 095°07'0 0.1
2017-Sep-11 22:09N 29°46' W 095°06'0 0.0
2017-Sep-11 21:52N 29°46' W 095°06'0 0.1
2017-Sep-11 21:10N 29°46' W 095°07'1 1.1
2017-Sep-11 20:20N 29°45' W 095°06'1 1.7
2017-Sep-11 20:00N 29°46' W 095°05'1 0.7
2017-Sep-11 19:09N 29°46' W 095°06'1 3.4
2017-Sep-11 18:58N 29°46' W 095°05'1 2.9
2017-Sep-11 18:29N 29°47' W 095°04'0 0.0
2017-Sep-11 17:50N 29°47' W 095°04'0 0.0
2017-Sep-11 17:29N 29°47' W 095°04'0 0.0
2017-Sep-11 16:50N 29°47' W 095°04'0 0.0
2017-Sep-11 16:29N 29°47' W 095°04'0 0.0
2017-Sep-11 15:59N 29°47' W 095°04'0 0.0
2017-Sep-11 15:29N 29°47' W 095°04'0 0.0
2017-Sep-11 14:53N 29°47' W 095°04'0 0.0
2017-Sep-11 14:26N 29°47' W 095°04'0 0.0
2017-Sep-11 13:53N 29°47' W 095°04'0 0.0
2017-Sep-11 13:23N 29°47' W 095°04'1 1.1
2017-Sep-11 12:54N 29°47' W 095°05'1 1.1
2017-Sep-11 11:37N 29°45' W 095°06'0 0.3
2017-Sep-11 11:23N 29°45' W 095°06'0 0.0
2017-Sep-11 10:38N 29°45' W 095°06'0 0.0
2017-Sep-11 10:23N 29°45' W 095°06'0 0.8
2017-Sep-11 09:59N 29°46' W 095°05'2 3.8
2017-Sep-11 09:30N 29°47' W 095°04'0 0.1
2017-Sep-11 08:09N 29°47' W 095°04'1 5.1
2017-Sep-11 08:00N 29°46' W 095°05'1 0.1
2017-Sep-10 18:09N 29°46' W 095°05'1 0.5
2017-Sep-10 15:33N 29°45' W 095°06'1 4.7
2017-Sep-10 15:24N 29°45' W 095°06'2 4.8
2017-Sep-10 15:00N 29°47' W 095°04'0 0.0
2017-Sep-10 13:46N 29°47' W 095°04'0 0.0
2017-Sep-10 13:29N 29°47' W 095°04'0 0.0
2017-Sep-10 12:58N 29°47' W 095°04'0 0.2
2017-Sep-10 12:29N 29°47' W 095°04'0 0.5
2017-Sep-10 12:00N 29°47' W 095°05'0 0.0
2017-Sep-10 11:29N 29°47' W 095°05'0 0.0
2017-Sep-10 10:50N 29°47' W 095°05'0 0.0
2017-Sep-10 10:30N 29°47' W 095°05'0 0.0
2017-Sep-10 10:00N 29°47' W 095°05'1 1.8
2017-Sep-10 09:29N 29°46' W 095°05'2 3.7
2017-Sep-10 08:58N 29°45' W 095°06'2 4.3
2017-Sep-10 08:24N 29°44' W 095°09'5 1.9
2017-Sep-10 06:00N 29°43' W 095°14'0 0.0
2017-Sep-10 04:07N 29°43' W 095°14'0 0.0
2017-Sep-10 03:06N 29°43' W 095°14'3 3.8
2017-Sep-10 02:18N 29°45' W 095°11'1 5.0
2017-Sep-10 02:00N 29°45' W 095°10'3 5.0
2017-Sep-10 01:30N 29°44' W 095°07'2 0.3
2017-Sep-09 19:30N 29°46' W 095°06'0 0.2
2017-Sep-09 17:38N 29°45' W 095°06'0 0.5
2017-Sep-09 16:43N 29°46' W 095°05'1 0.3
2017-Sep-09 15:07N 29°45' W 095°06'0 3.2
2017-Sep-09 15:00N 29°46' W 095°05'2 3.5
2017-Sep-09 14:30N 29°47' W 095°04'0 0.4
2017-Sep-09 14:00N 29°47' W 095°04'2 0.6
2017-Sep-09 10:56N 29°46' W 095°05'3 5.7
2017-Sep-09 10:25N 29°44' W 095°08'2 3.7
2017-Sep-09 09:55N 29°45' W 095°10'3 5.8
2017-Sep-09 09:20N 29°44' W 095°14'1 1.4
2017-Sep-09 08:52N 29°43' W 095°14'0 0.8
2017-Sep-09 08:27N 29°43' W 095°14'2 4.8
2017-Sep-09 07:58N 29°45' W 095°12'3 5.0
2017-Sep-09 07:27N 29°44' W 095°09'2 4.5
2017-Sep-09 07:00N 29°45' W 095°06'3 4.9
2017-Sep-09 06:29N 29°47' W 095°05'1 0.6
2017-Sep-09 05:03N 29°47' W 095°04'0 2.4
2017-Sep-09 04:59N 29°47' W 095°04'2 3.1
2017-Sep-09 04:24N 29°46' W 095°06'0 0.8
2017-Sep-09 04:00N 29°46' W 095°06'0 0.0
2017-Sep-09 03:29N 29°46' W 095°06'0 0.0
2017-Sep-09 02:56N 29°46' W 095°06'0 0.0
2017-Sep-09 02:29N 29°46' W 095°06'0 0.0
2017-Sep-09 01:59N 29°46' W 095°06'0 0.3
2017-Sep-09 01:30N 29°46' W 095°06'0 0.3
2017-Sep-08 23:51N 29°45' W 095°06'2 5.5
2017-Sep-08 23:30N 29°47' W 095°04'0 0.4
2017-Sep-08 22:42N 29°47' W 095°05'1 2.9
2017-Sep-08 22:25N 29°46' W 095°05'2 5.2
2017-Sep-08 21:59N 29°44' W 095°07'6 4.8
2017-Sep-08 20:43N 29°44' W 095°14'0 1.1
2017-Sep-08 20:30N 29°44' W 095°14'0 0.0
2017-Sep-08 19:55N 29°44' W 095°14'3 3.6
2017-Sep-08 19:12N 29°45' W 095°11'1 6.2
2017-Sep-08 19:00N 29°45' W 095°10'3 5.3
2017-Sep-08 18:30N 29°44' W 095°07'0 0.6
2017-Sep-08 18:00N 29°45' W 095°06'1 2.0
2017-Sep-08 17:29N 29°45' W 095°06'2 3.3
2017-Sep-08 16:46N 29°47' W 095°04'2 5.4
2017-Sep-08 16:29N 29°46' W 095°05'0 0.1
2017-Sep-08 13:35N 29°46' W 095°05'1 5.1
2017-Sep-08 13:28N 29°46' W 095°05'1 2.2
2017-Sep-08 12:59N 29°47' W 095°04'0 0.0
2017-Sep-08 12:11N 29°47' W 095°04'0 0.0
2017-Sep-08 11:59N 29°47' W 095°04'0 0.0
2017-Sep-08 11:20N 29°47' W 095°04'0 0.0
2017-Sep-08 10:56N 29°47' W 095°04'0 0.0
2017-Sep-08 10:29N 29°47' W 095°04'0 0.0
2017-Sep-08 09:56N 29°47' W 095°04'0 0.0
2017-Sep-08 09:29N 29°47' W 095°04'0 0.0
2017-Sep-08 08:59N 29°47' W 095°04'0 0.0
2017-Sep-08 08:29N 29°47' W 095°04'0 0.0
2017-Sep-08 07:59N 29°47' W 095°04'0 0.0
2017-Sep-08 07:29N 29°47' W 095°04'0 0.0
2017-Sep-08 06:59N 29°47' W 095°04'0 0.0
2017-Sep-08 06:29N 29°47' W 095°04'0 0.0
2017-Sep-08 05:59N 29°47' W 095°04'0 0.0
2017-Sep-08 05:29N 29°47' W 095°04'  

Dump ship's entire track history